createdAt,value
2022-12-28T00:01:29.702Z,6.82
2022-12-28T00:03:59.567Z,7.10
2022-12-28T00:06:27.678Z,6.85
2022-12-28T00:08:56.362Z,7.13
2022-12-28T00:11:30.597Z,6.95
2022-12-28T00:14:01.130Z,6.18
2022-12-28T00:16:34.828Z,6.90
2022-12-28T00:19:04.946Z,6.75
2022-12-28T00:21:32.133Z,7.15
2022-12-28T00:24:00.613Z,6.75
2022-12-28T00:26:32.660Z,6.97
2022-12-28T00:29:04.851Z,6.90
2022-12-28T00:31:34.481Z,6.60
2022-12-28T00:34:02.822Z,7.18
2022-12-28T00:37:08.570Z,6.28
2022-12-28T00:39:18.776Z,6.57
2022-12-28T00:41:45.862Z,6.88
2022-12-28T00:44:12.917Z,6.65
2022-12-28T00:46:40.197Z,6.60
2022-12-28T00:49:07.393Z,6.75
2022-12-28T00:51:34.576Z,6.75
2022-12-28T00:54:01.645Z,6.80
2022-12-28T00:56:28.768Z,6.93
2022-12-28T00:58:58.221Z,6.97
2022-12-28T01:01:26.240Z,6.50
2022-12-28T01:03:56.693Z,8.43
2022-12-28T01:06:25.781Z,8.18
2022-12-28T01:08:53.240Z,6.97
2022-12-28T01:11:22.948Z,7.65
2022-12-28T01:13:51.825Z,7.18
2022-12-28T01:16:27.153Z,7.10
2022-12-28T01:18:56.822Z,7.50
2022-12-28T01:21:27.019Z,7.25
2022-12-28T01:23:56.677Z,6.93
2022-12-28T01:26:25.019Z,7.00
2022-12-28T01:28:52.487Z,7.13
2022-12-28T01:31:20.850Z,7.05
2022-12-28T01:33:48.736Z,7.90
2022-12-28T01:36:21.724Z,7.55
2022-12-28T01:38:53.772Z,8.38
2022-12-28T01:41:21.901Z,7.72
2022-12-28T01:43:53.050Z,7.35
2022-12-28T01:46:46.070Z,7.57
2022-12-28T01:49:18.853Z,6.95
2022-12-28T01:52:08.618Z,7.78
2022-12-28T01:54:46.623Z,7.82
2022-12-28T01:57:15.548Z,8.02
2022-12-28T01:59:47.255Z,7.78
2022-12-28T02:02:15.988Z,7.95
2022-12-28T02:04:45.713Z,7.95
2022-12-28T02:07:17.003Z,7.47
2022-12-28T02:09:44.283Z,7.80
2022-12-28T02:12:32.443Z,7.55
2022-12-28T02:15:00.197Z,7.78
2022-12-28T02:17:27.463Z,8.10
2022-12-28T02:19:54.696Z,7.75
2022-12-28T02:22:30.626Z,7.90
2022-12-28T02:25:14.030Z,7.43
2022-12-28T02:30:11.401Z,8.07
2022-12-28T02:32:38.386Z,7.90
2022-12-28T02:35:39.052Z,7.38
2022-12-28T02:38:24.091Z,7.05
2022-12-28T02:41:01.409Z,7.78
2022-12-28T02:43:28.642Z,7.97
2022-12-28T02:46:14.415Z,7.47
2022-12-28T02:49:03.756Z,7.72
2022-12-28T02:52:03.107Z,7.68
2022-12-28T02:54:51.380Z,7.40
2022-12-28T02:57:47.691Z,6.68
2022-12-28T03:00:24.388Z,7.80
2022-12-28T03:03:15.867Z,7.28
2022-12-28T03:06:24.327Z,8.18
2022-12-28T03:09:20.175Z,7.20
2022-12-28T03:12:00.672Z,6.90
2022-12-28T03:14:40.046Z,7.93
2022-12-28T03:17:28.485Z,7.20
2022-12-28T03:20:23.581Z,7.35
2022-12-28T03:23:11.594Z,6.97
2022-12-28T03:26:01.321Z,7.10
2022-12-28T03:28:55.837Z,8.02
2022-12-28T03:31:25.365Z,7.35
2022-12-28T03:34:09.306Z,6.80
2022-12-28T03:36:55.341Z,7.03
2022-12-28T03:39:34.796Z,6.97
2022-12-28T03:42:33.740Z,6.97
2022-12-28T03:45:10.960Z,6.80
2022-12-28T03:47:41.168Z,7.35
2022-12-28T03:50:09.093Z,6.65
2022-12-28T03:52:36.582Z,7.28
2022-12-28T03:55:05.903Z,7.13
2022-12-28T03:57:33.354Z,7.28
2022-12-28T04:00:02.063Z,7.30
2022-12-28T04:02:30.008Z,7.00
2022-12-28T04:04:57.208Z,7.00
2022-12-28T04:07:24.127Z,7.82
2022-12-28T04:09:51.380Z,7.20
2022-12-28T04:12:18.980Z,7.43
2022-12-28T04:15:05.230Z,7.22
2022-12-28T04:17:33.288Z,7.82
2022-12-28T04:20:00.349Z,7.90
2022-12-28T04:22:27.627Z,7.70
2022-12-28T04:24:55.554Z,7.95
2022-12-28T04:27:24.345Z,7.72
2022-12-28T04:29:54.404Z,7.47
2022-12-28T04:32:24.105Z,7.82
2022-12-28T04:34:51.119Z,7.88
2022-12-28T04:37:19.051Z,7.78
2022-12-28T04:39:56.386Z,8.32
2022-12-28T04:42:26.380Z,8.50
2022-12-28T04:44:53.671Z,8.75
2022-12-28T04:47:20.845Z,7.88
2022-12-28T04:49:47.907Z,8.45
2022-12-28T04:52:15.012Z,8.40
2022-12-28T04:54:42.110Z,8.02
2022-12-28T04:57:09.173Z,8.70
2022-12-28T04:59:36.261Z,8.70
2022-12-28T05:02:03.537Z,8.32
2022-12-28T05:04:30.782Z,8.40
2022-12-28T05:06:57.952Z,8.63
2022-12-28T05:09:26.492Z,8.30
2022-12-28T05:11:53.836Z,8.85
2022-12-28T05:14:20.916Z,9.43
2022-12-28T05:16:52.367Z,9.52
2022-12-28T05:19:19.528Z,9.05
2022-12-28T05:21:46.519Z,10.48
2022-12-28T05:24:13.712Z,10.93
2022-12-28T05:26:40.793Z,9.80
2022-12-28T05:29:07.963Z,9.65
2022-12-28T05:31:34.967Z,8.77
2022-12-28T05:34:02.146Z,9.25
2022-12-28T05:36:29.367Z,9.38
2022-12-28T05:38:57.117Z,9.90
2022-12-28T05:41:29.371Z,8.98
2022-12-28T05:43:57.737Z,9.23
2022-12-28T05:46:30.951Z,9.40
2022-12-28T05:48:59.025Z,9.45
2022-12-28T05:51:29.028Z,10.85
2022-12-28T05:53:56.896Z,10.95
2022-12-28T05:56:26.943Z,11.52
2022-12-28T05:58:59.197Z,10.10
2022-12-28T06:01:29.051Z,10.27
2022-12-28T06:03:58.889Z,11.55
2022-12-28T06:06:27.078Z,11.18
2022-12-28T06:08:55.170Z,11.32
2022-12-28T06:11:25.721Z,11.35
2022-12-28T06:13:53.314Z,11.25
2022-12-28T06:16:29.772Z,11.60
2022-12-28T06:18:57.555Z,11.23
2022-12-28T06:21:27.459Z,10.38
2022-12-28T06:23:57.974Z,11.43
2022-12-28T06:26:26.625Z,11.68
2022-12-28T06:28:53.640Z,10.68
2022-12-28T06:31:32.323Z,10.35
2022-12-28T06:34:02.973Z,10.68
2022-12-28T06:36:36.310Z,9.43
2022-12-28T06:39:05.129Z,9.85
2022-12-28T06:41:32.112Z,9.18
2022-12-28T06:43:59.885Z,10.05
2022-12-28T06:46:29.718Z,11.20
2022-12-28T06:48:57.400Z,10.05
2022-12-28T06:51:30.680Z,9.93
2022-12-28T06:53:58.364Z,8.70
2022-12-28T06:56:28.337Z,8.50
2022-12-28T06:59:02.507Z,7.80
2022-12-28T07:01:36.657Z,8.23
2022-12-28T07:04:06.163Z,8.77
2022-12-28T07:06:39.961Z,8.35
2022-12-28T07:09:13.556Z,8.23
2022-12-28T07:11:41.552Z,7.40
2022-12-28T07:14:08.709Z,7.85
2022-12-28T07:19:01.875Z,7.97
2022-12-28T07:21:33.249Z,7.63
2022-12-28T07:24:01.543Z,8.73
2022-12-28T07:26:31.077Z,8.02
2022-12-28T07:29:00.128Z,7.15
2022-12-28T07:31:29.827Z,7.05
2022-12-28T07:33:58.456Z,7.38
2022-12-28T07:36:27.180Z,7.45
2022-12-28T07:38:54.399Z,7.63
2022-12-28T07:41:28.157Z,8.85
2022-12-28T07:43:56.318Z,8.05
2022-12-28T07:46:26.394Z,8.63
2022-12-28T07:48:53.944Z,9.02
2022-12-28T07:51:24.628Z,11.63
2022-12-28T07:53:52.505Z,12.80
2022-12-28T07:56:22.896Z,13.05
2022-12-28T07:58:58.577Z,13.07
2022-12-28T08:01:28.653Z,13.35
2022-12-28T08:03:59.004Z,15.05
2022-12-28T08:06:27.204Z,13.82
2022-12-28T08:08:58.364Z,14.23
2022-12-28T08:11:28.680Z,14.52
2022-12-28T08:13:56.590Z,15.40
2022-12-28T08:16:27.044Z,15.82
2022-12-28T08:18:55.133Z,17.48
2022-12-28T08:21:23.675Z,16.42
2022-12-28T08:23:51.228Z,17.20
2022-12-28T08:26:24.963Z,16.70
2022-12-28T08:28:55.272Z,14.38
2022-12-28T08:31:28.281Z,14.80
2022-12-28T08:33:56.933Z,13.23
2022-12-28T08:36:24.135Z,13.98
2022-12-28T08:38:51.902Z,12.15
2022-12-28T08:41:21.525Z,11.00
2022-12-28T08:43:49.857Z,10.98
2022-12-28T08:46:22.371Z,11.10
2022-12-28T08:48:50.973Z,10.48
2022-12-28T08:51:20.622Z,8.98
2022-12-28T08:53:48.790Z,8.65
2022-12-28T08:56:17.481Z,10.30
2022-12-28T08:58:45.859Z,10.63
2022-12-28T09:01:25.331Z,10.40
2022-12-28T09:03:55.846Z,12.68
2022-12-28T09:06:31.560Z,12.70
2022-12-28T09:09:07.307Z,13.40
2022-12-28T09:11:39.551Z,12.63
2022-12-28T09:14:09.502Z,12.60
2022-12-28T09:16:38.265Z,10.07
2022-12-28T09:19:07.265Z,8.27
2022-12-28T09:21:36.584Z,9.00
2022-12-28T09:24:03.948Z,9.23
2022-12-28T09:26:34.584Z,8.05
2022-12-28T09:29:03.486Z,6.50
2022-12-28T09:31:33.029Z,7.78
2022-12-28T09:34:35.031Z,10.38
2022-12-28T09:36:51.212Z,8.93
2022-12-28T09:39:20.965Z,9.10
2022-12-28T09:42:14.879Z,7.75
2022-12-28T09:44:57.575Z,7.55
2022-12-28T09:47:44.677Z,7.50
2022-12-28T09:50:17.598Z,7.63
2022-12-28T09:55:19.229Z,6.85
2022-12-28T09:57:50.855Z,7.15
2022-12-28T10:00:28.920Z,7.07
2022-12-28T10:03:02.148Z,8.00
2022-12-28T10:05:29.900Z,6.75
2022-12-28T10:08:03.482Z,7.13
2022-12-28T10:10:30.930Z,6.70
2022-12-28T10:13:04.562Z,7.38
2022-12-28T10:15:32.924Z,8.02
2022-12-28T10:21:20.003Z,6.75
2022-12-28T10:24:29.596Z,6.65
2022-12-28T10:26:44.592Z,6.05
2022-12-28T10:29:21.393Z,6.60
2022-12-28T10:32:06.796Z,5.97
2022-12-28T10:34:35.854Z,5.78
2022-12-28T10:37:17.472Z,5.97
2022-12-28T10:39:55.274Z,5.50
2022-12-28T10:42:49.859Z,5.38
2022-12-28T10:45:25.669Z,4.90
2022-12-28T10:47:55.823Z,5.68
2022-12-28T10:50:55.229Z,4.93
2022-12-28T10:53:33.088Z,5.78
2022-12-28T10:56:17.494Z,4.20
2022-12-28T10:58:46.836Z,4.78
2022-12-28T11:01:13.842Z,4.57
2022-12-28T11:03:57.318Z,4.28
2022-12-28T11:09:33.019Z,4.80
2022-12-28T11:12:24.437Z,4.90
2022-12-28T11:14:52.972Z,4.22
2022-12-28T11:17:23.418Z,4.70
2022-12-28T11:20:07.286Z,4.30
2022-12-28T11:22:35.204Z,4.85
2022-12-28T11:25:02.742Z,5.80
2022-12-28T11:27:29.948Z,4.97
2022-12-28T11:29:57.891Z,4.82
2022-12-28T11:32:30.198Z,5.45
2022-12-28T11:34:58.450Z,5.47
2022-12-28T11:37:25.581Z,5.82
2022-12-28T11:39:53.756Z,5.25
2022-12-28T11:42:41.268Z,5.78
2022-12-28T11:45:36.581Z,6.28
2022-12-28T11:48:41.963Z,5.97
2022-12-28T11:51:26.313Z,6.07
2022-12-28T11:54:01.634Z,6.00
2022-12-28T11:56:49.405Z,6.28
2022-12-28T11:59:25.470Z,5.55
2022-12-28T12:02:00.948Z,6.03
2022-12-28T12:04:46.481Z,5.63
2022-12-28T12:07:46.749Z,5.28
2022-12-28T12:10:35.288Z,5.78
2022-12-28T12:13:23.965Z,4.93
2022-12-28T12:15:59.545Z,5.50
2022-12-28T12:18:29.856Z,5.75
2022-12-28T12:21:08.879Z,6.30
2022-12-28T12:23:47.117Z,6.75
2022-12-28T12:26:39.362Z,5.90
2022-12-28T12:29:12.949Z,6.47
2022-12-28T12:31:45.469Z,6.05
2022-12-28T12:34:40.351Z,6.20
2022-12-28T12:37:26.308Z,5.63
2022-12-28T12:40:17.660Z,6.63
2022-12-28T12:43:23.711Z,6.30
2022-12-28T12:45:50.724Z,7.20
2022-12-28T12:48:42.074Z,6.57
2022-12-28T12:51:41.406Z,6.30
2022-12-28T12:54:29.966Z,5.68
2022-12-28T12:57:03.372Z,6.25
2022-12-28T12:59:37.001Z,5.95
2022-12-28T13:02:37.930Z,6.10
2022-12-28T13:05:06.074Z,7.22
2022-12-28T13:07:34.274Z,6.07
2022-12-28T13:10:04.669Z,6.15
2022-12-28T13:12:31.925Z,6.32
2022-12-28T13:15:12.330Z,6.15
2022-12-28T13:17:40.143Z,6.30
2022-12-28T13:20:19.800Z,6.25
2022-12-28T13:22:49.118Z,4.93
2022-12-28T13:25:34.021Z,3.97
2022-12-28T13:28:03.311Z,4.45
2022-12-28T13:30:30.820Z,4.50
2022-12-28T13:33:02.244Z,3.53
2022-12-28T13:35:32.471Z,5.18
2022-12-28T13:38:03.980Z,5.40
2022-12-28T13:40:34.183Z,4.65
2022-12-28T13:43:13.512Z,4.50
2022-12-28T13:45:41.530Z,3.97
2022-12-28T13:48:11.094Z,4.63
2022-12-28T13:50:41.884Z,4.80
2022-12-28T13:53:13.267Z,4.70
2022-12-28T13:55:48.024Z,4.32
2022-12-28T13:58:20.274Z,3.90
2022-12-28T14:00:50.006Z,4.43
2022-12-28T14:03:18.887Z,4.82
2022-12-28T14:05:50.746Z,4.43
2022-12-28T14:08:18.682Z,4.40
2022-12-28T14:10:47.305Z,4.53
2022-12-28T14:13:15.721Z,4.35
2022-12-28T14:15:43.357Z,4.88
2022-12-28T14:18:15.120Z,3.78
2022-12-28T14:20:56.441Z,3.63
2022-12-28T14:23:32.812Z,4.03
2022-12-28T14:26:02.880Z,3.92
2022-12-28T14:28:36.904Z,4.25
2022-12-28T14:31:06.402Z,5.30
2022-12-28T14:33:56.216Z,4.22
2022-12-28T14:36:31.593Z,4.57
2022-12-28T14:39:04.940Z,4.50
2022-12-28T14:41:39.991Z,4.20
2022-12-28T14:44:15.707Z,4.90
2022-12-28T14:46:44.977Z,5.30
2022-12-28T14:49:30.524Z,5.03
2022-12-28T14:52:18.000Z,4.90
2022-12-28T14:54:50.896Z,5.45
2022-12-28T14:57:26.945Z,5.30
2022-12-28T15:00:26.115Z,5.78
2022-12-28T15:02:57.319Z,6.32
2022-12-28T15:05:33.693Z,6.60
2022-12-28T15:08:01.025Z,7.60
2022-12-28T15:10:28.086Z,7.35
2022-12-28T15:12:55.230Z,7.70
2022-12-28T15:15:22.445Z,7.35
2022-12-28T15:17:49.609Z,8.05
2022-12-28T15:20:17.791Z,7.78
2022-12-28T15:22:45.083Z,8.05
2022-12-28T15:25:12.263Z,8.05
2022-12-28T15:27:39.535Z,7.30
2022-12-28T15:30:09.128Z,8.15
2022-12-28T15:32:38.945Z,7.23
2022-12-28T15:35:06.677Z,7.28
2022-12-28T15:37:33.698Z,7.80
2022-12-28T15:40:00.963Z,8.60
2022-12-28T15:42:28.044Z,8.75
2022-12-28T15:44:55.300Z,9.63
2022-12-28T15:47:23.354Z,9.50
2022-12-28T15:49:50.532Z,9.00
2022-12-28T15:52:17.584Z,9.77
2022-12-28T15:54:47.299Z,9.15
2022-12-28T15:57:15.978Z,9.50
2022-12-28T15:59:43.088Z,9.60
2022-12-28T16:02:13.285Z,9.43
2022-12-28T16:04:40.532Z,9.75
2022-12-28T16:07:07.794Z,10.15
2022-12-28T16:09:34.858Z,10.70
2022-12-28T16:12:02.190Z,11.32
2022-12-28T16:14:29.214Z,11.02
2022-12-28T16:16:56.781Z,10.70
2022-12-28T16:19:23.835Z,12.27
2022-12-28T16:21:51.543Z,12.23
2022-12-28T16:24:20.126Z,12.50
2022-12-28T16:26:47.829Z,13.32
2022-12-28T16:29:14.890Z,13.85
2022-12-28T16:31:42.155Z,13.02
2022-12-28T16:34:17.527Z,13.68
2022-12-28T16:36:48.189Z,13.77
2022-12-28T16:39:17.700Z,11.63
2022-12-28T16:41:44.771Z,12.90
2022-12-28T16:44:18.177Z,13.38
2022-12-28T16:46:45.285Z,15.00
2022-12-28T16:49:12.808Z,16.33
2022-12-28T16:51:42.583Z,21.98
2022-12-28T16:54:21.088Z,17.00
2022-12-28T16:56:49.346Z,16.58
2022-12-28T16:59:20.026Z,16.33
2022-12-28T17:01:48.197Z,18.30
2022-12-28T17:04:15.563Z,19.92
2022-12-28T17:06:43.758Z,17.15
2022-12-28T17:09:10.807Z,16.98
2022-12-28T17:11:37.890Z,17.67
2022-12-28T17:14:07.602Z,16.35
2022-12-28T17:16:34.689Z,16.73
2022-12-28T17:19:01.965Z,16.42
2022-12-28T17:21:30.645Z,16.40
2022-12-28T17:23:58.452Z,16.33
2022-12-28T17:26:25.502Z,15.52
2022-12-28T17:28:52.644Z,15.52
2022-12-28T17:31:21.641Z,13.63
2022-12-28T17:33:51.876Z,18.92
2022-12-28T17:36:18.941Z,24.23
2022-12-28T17:38:45.981Z,28.35
2022-12-28T17:41:20.328Z,28.42
2022-12-28T17:44:05.831Z,21.85
2022-12-28T17:46:33.369Z,24.98
2022-12-28T17:49:00.903Z,26.67
2022-12-28T17:51:29.326Z,22.70
2022-12-28T17:53:57.588Z,19.65
2022-12-28T17:56:25.467Z,20.35
2022-12-28T17:58:58.395Z,18.77
2022-12-28T18:01:28.033Z,20.02
2022-12-28T18:03:56.054Z,18.52
2022-12-28T18:06:23.992Z,20.83
2022-12-28T18:08:51.559Z,18.55
2022-12-28T18:11:18.525Z,19.52
2022-12-28T18:13:47.578Z,17.75
2022-12-28T18:16:17.042Z,17.83
2022-12-28T18:18:44.260Z,18.70
2022-12-28T18:21:19.358Z,20.10
2022-12-28T18:23:49.515Z,23.13
2022-12-28T18:26:22.468Z,19.50
2022-12-28T18:28:49.801Z,20.33
2022-12-28T18:31:16.885Z,18.40
2022-12-28T18:33:44.180Z,17.98
2022-12-28T18:36:17.134Z,18.10
2022-12-28T18:38:45.596Z,18.67
2022-12-28T18:41:14.618Z,16.83
2022-12-28T18:43:41.881Z,18.10
2022-12-28T18:46:09.288Z,18.50
2022-12-28T18:48:38.953Z,19.45
2022-12-28T18:51:26.230Z,19.10
2022-12-28T18:53:53.200Z,18.98
2022-12-28T18:56:21.686Z,21.55
2022-12-28T18:58:54.535Z,19.83
2022-12-28T19:04:12.565Z,17.73
2022-12-28T19:06:40.263Z,16.83
2022-12-28T19:09:08.786Z,20.77
2022-12-28T19:11:37.717Z,21.80
2022-12-28T19:14:07.607Z,21.65
2022-12-28T19:16:35.170Z,20.45
2022-12-28T19:19:02.376Z,20.65
2022-12-28T19:21:35.670Z,19.63
2022-12-28T19:24:13.743Z,22.27
2022-12-28T19:26:41.027Z,20.02
2022-12-28T19:29:10.412Z,43.90
2022-12-28T19:31:37.684Z,40.17
2022-12-28T19:34:04.827Z,28.30
2022-12-28T19:36:32.029Z,23.75
2022-12-28T19:38:59.419Z,21.33
2022-12-28T19:41:26.736Z,25.98
2022-12-28T19:43:53.874Z,26.10
2022-12-28T19:46:24.852Z,21.40
2022-12-28T19:48:55.148Z,23.45
2022-12-28T19:51:27.173Z,18.83
2022-12-28T19:53:57.514Z,18.17
2022-12-28T19:56:24.557Z,16.25
2022-12-28T19:58:51.719Z,15.70
2022-12-28T20:01:25.611Z,16.48
2022-12-28T20:03:53.087Z,15.77
2022-12-28T20:06:29.830Z,16.67
2022-12-28T20:09:01.315Z,14.57
2022-12-28T20:11:29.857Z,14.32
2022-12-28T20:14:00.273Z,14.45
2022-12-28T20:16:29.374Z,14.73
2022-12-28T20:18:57.238Z,14.57
2022-12-28T20:21:25.743Z,14.70
2022-12-28T20:23:54.284Z,15.07
2022-12-28T20:26:23.863Z,14.32
2022-12-28T20:28:51.315Z,16.25
2022-12-28T20:31:19.105Z,15.55
2022-12-28T20:33:47.110Z,14.95
2022-12-28T20:36:20.424Z,20.05
2022-12-28T20:41:35.949Z,18.33
2022-12-28T20:44:08.926Z,15.73
2022-12-28T20:46:36.525Z,22.13
2022-12-28T20:49:04.349Z,17.50
2022-12-28T20:51:31.828Z,15.82
2022-12-28T20:53:59.036Z,17.08
2022-12-28T20:56:26.171Z,15.73
2022-12-28T20:58:53.969Z,18.50
2022-12-28T21:01:21.967Z,13.88
2022-12-28T21:03:49.248Z,15.50
2022-12-28T21:06:16.689Z,15.45
2022-12-28T21:08:44.162Z,14.65
2022-12-28T21:11:11.318Z,14.65
2022-12-28T21:13:43.883Z,14.93
2022-12-28T21:16:12.912Z,18.20
2022-12-28T21:18:40.612Z,15.20
2022-12-28T21:21:18.429Z,15.27
2022-12-28T21:23:45.934Z,15.63
2022-12-28T21:26:15.334Z,15.88
2022-12-28T21:28:43.501Z,16.85
2022-12-28T21:31:11.380Z,15.20
2022-12-28T21:33:39.432Z,15.48
2022-12-28T21:36:17.945Z,15.13
2022-12-28T21:38:47.165Z,16.90
2022-12-28T21:41:38.190Z,16.08
2022-12-28T21:44:11.236Z,15.20
2022-12-28T21:46:38.589Z,13.98
2022-12-28T21:49:06.197Z,13.75
2022-12-28T21:51:37.610Z,13.43
2022-12-28T21:54:06.857Z,14.63
2022-12-28T21:56:36.932Z,14.60
2022-12-28T21:59:05.008Z,14.38
2022-12-28T22:01:50.811Z,14.30
2022-12-28T22:04:38.734Z,13.82
2022-12-28T22:07:07.347Z,13.13
2022-12-28T22:09:53.755Z,13.38
2022-12-28T22:12:40.326Z,12.98
2022-12-28T22:15:37.777Z,11.88
2022-12-28T22:18:37.011Z,13.48
2022-12-28T22:21:06.466Z,12.40
2022-12-28T22:23:35.094Z,13.80
2022-12-28T22:26:02.833Z,13.90
2022-12-28T22:28:32.259Z,13.90
2022-12-28T22:31:03.509Z,14.23
2022-12-28T22:33:30.528Z,15.13
2022-12-28T22:35:57.659Z,13.60
2022-12-28T22:38:24.676Z,12.70
2022-12-28T22:41:00.753Z,12.45
2022-12-28T22:43:28.006Z,12.82
2022-12-28T22:46:06.129Z,13.23
2022-12-28T22:48:33.690Z,12.77
2022-12-28T22:51:13.596Z,13.38
2022-12-28T22:53:42.651Z,14.00
2022-12-28T22:56:21.057Z,13.23
2022-12-28T22:58:48.950Z,13.63
2022-12-28T23:01:18.875Z,13.50
2022-12-28T23:03:47.402Z,12.77
2022-12-28T23:06:16.858Z,12.75
2022-12-28T23:08:44.566Z,12.88
2022-12-28T23:11:35.595Z,11.77
2022-12-28T23:14:27.051Z,11.93
2022-12-28T23:16:54.387Z,12.00
2022-12-28T23:19:40.249Z,11.70
2022-12-28T23:22:29.907Z,11.93
2022-12-28T23:25:32.379Z,11.82
2022-12-28T23:28:01.419Z,11.32
2022-12-28T23:30:29.191Z,12.68
2022-12-28T23:32:56.714Z,12.40
2022-12-28T23:35:25.343Z,11.75
2022-12-28T23:37:53.453Z,12.70
2022-12-28T23:40:22.689Z,11.43
2022-12-28T23:42:50.724Z,11.88
2022-12-28T23:45:18.555Z,12.82
2022-12-28T23:47:47.016Z,12.82
2022-12-28T23:50:16.342Z,12.93
2022-12-28T23:52:43.570Z,13.43
2022-12-28T23:55:11.232Z,13.70
2022-12-28T23:57:38.625Z,13.35
